SWR39 KSFO-LSZH
Flight info
| Callsign | SWR39 |
|---|---|
| Flight time | N/A |
| Altitude | 33000 |
| Route | SNTNA2 DEDHD DCT LKV DCT MLP J540 YQL Q896 BORIX DCT 55N103W/N0494F350 59N095W 62N085W 65N070W/M084F350 DCT EPMAN DCT 66N050W/M084F370 66N040W 65N030W 63N020W DCT ATSIX/N0480F370 DCT AKIVO DCT NEXUS DCT TOPPA DCT SUTAL DCT GTQ DCT BAMEV DCT BLM |
| Aircraft | B77W/H-SDE1E2E3FGHIJ2J3J4J5M1RWXY/LB1D1 |
Departure
| Time | N/A |
|---|---|
| Airport | San Francisco International Airport (KSFO) |
Arrival
| Time | 2026-05-04 09:29 |
|---|---|
| Airport | Zürich Airport (LSZH) |
| Time | Latitude | Longitude | Altitude | Speed | Heading |
|---|---|---|---|---|---|
| 2026-05-04 08:02 | 55.43510 | -0.22432 | 36667 ft | 486 kts | 130° |
| 2026-05-04 08:02 | 55.41304 | -0.17984 | 36982 ft | 488 kts | 130° |
| 2026-05-04 08:02 | 55.39064 | -0.13478 | 37019 ft | 490 kts | 130° |
| 2026-05-04 08:03 | 55.34578 | -0.04480 | 37027 ft | 488 kts | 130° |
| 2026-05-04 08:03 | 55.30109 | 0.04452 | 37028 ft | 487 kts | 130° |
| 2026-05-04 08:04 | 55.25652 | 0.13325 | 37021 ft | 487 kts | 130° |
| 2026-05-04 08:04 | 55.21169 | 0.22219 | 37019 ft | 486 kts | 130° |
| 2026-05-04 08:05 | 55.16735 | 0.30982 | 37031 ft | 487 kts | 130° |
| 2026-05-04 08:05 | 55.12260 | 0.39794 | 37029 ft | 486 kts | 130° |
| 2026-05-04 08:06 | 55.07796 | 0.48553 | 37033 ft | 485 kts | 130° |
| 2026-05-04 08:06 | 55.03303 | 0.57337 | 37028 ft | 487 kts | 130° |
| 2026-05-04 08:08 | 54.85337 | 0.92143 | 37027 ft | 483 kts | 131° |
| 2026-05-04 08:11 | 54.65075 | 1.30802 | 37016 ft | 483 kts | 132° |
| 2026-05-04 08:11 | 54.58294 | 1.43600 | 37024 ft | 483 kts | 132° |
| 2026-05-04 08:12 | 54.53759 | 1.52122 | 37023 ft | 484 kts | 132° |
| 2026-05-04 08:12 | 54.49228 | 1.60608 | 37023 ft | 483 kts | 133° |
| 2026-05-04 08:13 | 54.44691 | 1.69074 | 37020 ft | 483 kts | 133° |
| 2026-05-04 08:13 | 54.40149 | 1.77521 | 37014 ft | 483 kts | 134° |
| 2026-05-04 08:14 | 54.35608 | 1.85935 | 37010 ft | 482 kts | 134° |
| 2026-05-04 08:16 | 54.17419 | 2.19347 | 37008 ft | 480 kts | 134° |
| 2026-05-04 08:16 | 54.12868 | 2.27635 | 37010 ft | 481 kts | 134° |
| 2026-05-04 08:17 | 54.08324 | 2.35880 | 37010 ft | 480 kts | 134° |
| 2026-05-04 08:17 | 54.03750 | 2.44153 | 37017 ft | 481 kts | 134° |
| 2026-05-04 08:19 | 53.85404 | 2.77050 | 37011 ft | 480 kts | 135° |
| 2026-05-04 08:20 | 53.80836 | 2.85171 | 37009 ft | 480 kts | 135° |
| 2026-05-04 08:20 | 53.78537 | 2.89249 | 37120 ft | 481 kts | 135° |
| 2026-05-04 08:20 | 53.76222 | 2.93347 | 37023 ft | 477 kts | 136° |
| 2026-05-04 08:21 | 53.71673 | 3.01380 | 37009 ft | 479 kts | 136° |
| 2026-05-04 08:21 | 53.67059 | 3.09500 | 37011 ft | 479 kts | 136° |
| 2026-05-04 08:22 | 53.62477 | 3.17538 | 37009 ft | 479 kts | 136° |
| 2026-05-04 08:24 | 53.44036 | 3.49616 | 36991 ft | 478 kts | 136° |
| 2026-05-04 08:24 | 53.38931 | 3.56469 | 36994 ft | 471 kts | 153° |
| 2026-05-04 08:25 | 53.33155 | 3.61416 | 36995 ft | 468 kts | 156° |
| 2026-05-04 08:25 | 53.27307 | 3.66179 | 36989 ft | 465 kts | 158° |
| 2026-05-04 08:27 | 53.04015 | 3.84541 | 36972 ft | 463 kts | 158° |
| 2026-05-04 08:28 | 52.98188 | 3.89067 | 36973 ft | 463 kts | 159° |
| 2026-05-04 08:28 | 52.92377 | 3.93564 | 36984 ft | 462 kts | 159° |
| 2026-05-04 08:29 | 52.86587 | 3.98030 | 36981 ft | 461 kts | 159° |
| 2026-05-04 08:31 | 52.63485 | 4.15712 | 36985 ft | 457 kts | 159° |
| 2026-05-04 08:33 | 52.40475 | 4.33118 | 36985 ft | 455 kts | 160° |
| 2026-05-04 08:35 | 52.17579 | 4.50239 | 36965 ft | 456 kts | 160° |
| 2026-05-04 08:35 | 52.11828 | 4.54510 | 36989 ft | 453 kts | 160° |
| 2026-05-04 08:37 | 51.91835 | 4.69261 | 36961 ft | 451 kts | 161° |
| 2026-05-04 08:38 | 51.86148 | 4.73430 | 36967 ft | 451 kts | 161° |
| 2026-05-04 08:38 | 51.80445 | 4.77599 | 36967 ft | 452 kts | 161° |
| 2026-05-04 08:40 | 51.57676 | 4.94130 | 36988 ft | 449 kts | 161° |
| 2026-05-04 08:41 | 51.51998 | 4.98225 | 36978 ft | 448 kts | 161° |
| 2026-05-04 08:41 | 51.46308 | 5.02316 | 36975 ft | 448 kts | 161° |
| 2026-05-04 08:42 | 51.40629 | 5.06389 | 36981 ft | 447 kts | 161° |
| 2026-05-04 08:42 | 51.34958 | 5.10445 | 36976 ft | 447 kts | 161° |
| 2026-05-04 08:43 | 51.29277 | 5.14496 | 36982 ft | 448 kts | 161° |
| 2026-05-04 08:43 | 51.23621 | 5.18519 | 36976 ft | 445 kts | 161° |
| 2026-05-04 08:44 | 51.17971 | 5.22526 | 36980 ft | 445 kts | 161° |
| 2026-05-04 08:46 | 50.95414 | 5.38420 | 36974 ft | 444 kts | 161° |
| 2026-05-04 08:46 | 50.89739 | 5.42392 | 36979 ft | 444 kts | 161° |
| 2026-05-04 08:47 | 50.84105 | 5.46324 | 36988 ft | 445 kts | 161° |
| 2026-05-04 08:47 | 50.78472 | 5.50246 | 36990 ft | 445 kts | 161° |
| 2026-05-04 08:48 | 50.72817 | 5.54172 | 36988 ft | 446 kts | 161° |
| 2026-05-04 08:48 | 50.67185 | 5.58073 | 37003 ft | 444 kts | 161° |
| 2026-05-04 08:49 | 50.61521 | 5.61984 | 36995 ft | 446 kts | 161° |
| 2026-05-04 08:50 | 50.41777 | 5.75542 | 36978 ft | 442 kts | 161° |
| 2026-05-04 08:51 | 50.36119 | 5.79404 | 36977 ft | 445 kts | 161° |
| 2026-05-04 08:51 | 50.30462 | 5.83255 | 36964 ft | 444 kts | 161° |
| 2026-05-04 08:52 | 50.24834 | 5.87077 | 36983 ft | 444 kts | 161° |
| 2026-05-04 08:52 | 50.19157 | 5.90921 | 36969 ft | 446 kts | 161° |
| 2026-05-04 08:54 | 49.96452 | 6.06201 | 36982 ft | 446 kts | 161° |
| 2026-05-04 08:55 | 49.90760 | 6.10006 | 36984 ft | 445 kts | 161° |
| 2026-05-04 08:55 | 49.85095 | 6.13785 | 36993 ft | 445 kts | 161° |
| 2026-05-04 09:01 | 49.25348 | 6.53648 | 37005 ft | 448 kts | 160° |
| 2026-05-04 09:01 | 49.19653 | 6.57498 | 37012 ft | 449 kts | 160° |
| 2026-05-04 09:02 | 49.13951 | 6.61342 | 37005 ft | 449 kts | 160° |
| 2026-05-04 09:02 | 49.08247 | 6.65178 | 37016 ft | 448 kts | 161° |
| 2026-05-04 09:03 | 49.02537 | 6.69008 | 37021 ft | 448 kts | 161° |
| 2026-05-04 09:03 | 48.96862 | 6.72759 | 37026 ft | 447 kts | 163° |
| 2026-05-04 09:04 | 48.91076 | 6.76171 | 37027 ft | 447 kts | 163° |
| 2026-05-04 09:04 | 48.85287 | 6.79573 | 37034 ft | 447 kts | 163° |
| 2026-05-04 09:05 | 48.79468 | 6.83000 | 37037 ft | 447 kts | 163° |
| 2026-05-04 09:05 | 48.73703 | 6.86392 | 37039 ft | 447 kts | 163° |
| 2026-05-04 09:06 | 48.67900 | 6.89802 | 37043 ft | 447 kts | 163° |
| 2026-05-04 09:08 | 48.44724 | 7.03350 | 36777 ft | 443 kts | 163° |
| 2026-05-04 09:08 | 48.41867 | 7.05012 | 36145 ft | 443 kts | 163° |
| 2026-05-04 09:08 | 48.38976 | 7.06690 | 35388 ft | 447 kts | 163° |
| 2026-05-04 09:08 | 48.36097 | 7.08358 | 34567 ft | 451 kts | 163° |
| 2026-05-04 09:09 | 48.33174 | 7.10051 | 33712 ft | 452 kts | 163° |
| 2026-05-04 09:09 | 48.30236 | 7.11751 | 32930 ft | 451 kts | 163° |
| 2026-05-04 09:09 | 48.27331 | 7.13431 | 32163 ft | 451 kts | 163° |
| 2026-05-04 09:09 | 48.24417 | 7.15112 | 31382 ft | 450 kts | 163° |
| 2026-05-04 09:10 | 48.21505 | 7.16791 | 30615 ft | 449 kts | 163° |
| 2026-05-04 09:10 | 48.18638 | 7.18444 | 30133 ft | 441 kts | 163° |
| 2026-05-04 09:10 | 48.15820 | 7.20066 | 29694 ft | 434 kts | 162° |
| 2026-05-04 09:10 | 48.13001 | 7.21687 | 29202 ft | 427 kts | 162° |
| 2026-05-04 09:11 | 48.10280 | 7.23249 | 28711 ft | 422 kts | 162° |
| 2026-05-04 09:11 | 48.07569 | 7.24803 | 28223 ft | 416 kts | 162° |
| 2026-05-04 09:11 | 48.04882 | 7.26341 | 27726 ft | 411 kts | 162° |
| 2026-05-04 09:11 | 48.02239 | 7.27853 | 27235 ft | 406 kts | 162° |
| 2026-05-04 09:12 | 47.99626 | 7.29345 | 26754 ft | 400 kts | 162° |
| 2026-05-04 09:12 | 47.97037 | 7.30822 | 26276 ft | 396 kts | 162° |
| 2026-05-04 09:14 | 47.78894 | 7.41129 | 22801 ft | 390 kts | 161° |
| 2026-05-04 09:14 | 47.76366 | 7.42560 | 22304 ft | 386 kts | 161° |
| 2026-05-04 09:14 | 47.73873 | 7.43970 | 21819 ft | 383 kts | 161° |
| 2026-05-04 09:14 | 47.71404 | 7.45365 | 21327 ft | 379 kts | 161° |
| 2026-05-04 09:15 | 47.68974 | 7.46751 | 20824 ft | 377 kts | 159° |
| 2026-05-04 09:15 | 47.66676 | 7.48567 | 20331 ft | 376 kts | 149° |
| 2026-05-04 09:15 | 47.64639 | 7.50997 | 19845 ft | 377 kts | 138° |
| 2026-05-04 09:15 | 47.62933 | 7.53976 | 19335 ft | 378 kts | 127° |
| 2026-05-04 09:17 | 47.55642 | 7.82513 | 15311 ft | 364 kts | 111° |
| 2026-05-04 09:18 | 47.54808 | 7.86038 | 14799 ft | 362 kts | 111° |
| 2026-05-04 09:18 | 47.53981 | 7.89533 | 14299 ft | 360 kts | 111° |
| 2026-05-04 09:18 | 47.53151 | 7.93036 | 13790 ft | 358 kts | 111° |
| 2026-05-04 09:18 | 47.52334 | 7.96477 | 13298 ft | 355 kts | 111° |
| 2026-05-04 09:19 | 47.51521 | 7.99896 | 12805 ft | 353 kts | 111° |
| 2026-05-04 09:19 | 47.50703 | 8.03335 | 12295 ft | 350 kts | 111° |
| 2026-05-04 09:19 | 47.49903 | 8.06692 | 11796 ft | 349 kts | 111° |
| 2026-05-04 09:19 | 47.49095 | 8.10093 | 11235 ft | 350 kts | 111° |
| 2026-05-04 09:20 | 47.48301 | 8.13432 | 10642 ft | 339 kts | 111° |
| 2026-05-04 09:20 | 47.47637 | 8.16647 | 10464 ft | 317 kts | 99° |
| 2026-05-04 09:20 | 47.47684 | 8.19754 | 10355 ft | 298 kts | 80° |
| 2026-05-04 09:20 | 47.48288 | 8.22601 | 10223 ft | 281 kts | 67° |
| 2026-05-04 09:21 | 47.49421 | 8.24894 | 10101 ft | 284 kts | 44° |
| 2026-05-04 09:21 | 47.51131 | 8.26338 | 9812 ft | 290 kts | 19° |
| 2026-05-04 09:21 | 47.53149 | 8.26592 | 9387 ft | 295 kts | 352° |
| 2026-05-04 09:21 | 47.55054 | 8.25493 | 9010 ft | 294 kts | 324° |
| 2026-05-04 09:22 | 47.56437 | 8.23337 | 8699 ft | 290 kts | 304° |
| 2026-05-04 09:22 | 47.57644 | 8.20954 | 8373 ft | 289 kts | 310° |
| 2026-05-04 09:22 | 47.59014 | 8.18790 | 8000 ft | 290 kts | 320° |
| 2026-05-04 09:22 | 47.60782 | 8.17413 | 7591 ft | 286 kts | 348° |
| 2026-05-04 09:23 | 47.62705 | 8.17342 | 7242 ft | 272 kts | 15° |
| 2026-05-04 09:23 | 47.64364 | 8.18474 | 6936 ft | 263 kts | 41° |
| 2026-05-04 09:23 | 47.65659 | 8.20358 | 6635 ft | 259 kts | 49° |
| 2026-05-04 09:23 | 47.66671 | 8.22521 | 6308 ft | 256 kts | 70° |
| 2026-05-04 09:25 | 47.60361 | 8.36952 | 4610 ft | 250 kts | 136° |
| 2026-05-04 09:25 | 47.59094 | 8.38695 | 4287 ft | 246 kts | 135° |
| 2026-05-04 09:26 | 47.57901 | 8.40359 | 3981 ft | 220 kts | 135° |
| 2026-05-04 09:26 | 47.56841 | 8.41837 | 3723 ft | 200 kts | 135° |
| 2026-05-04 09:26 | 47.55862 | 8.43182 | 3479 ft | 186 kts | 135° |
| 2026-05-04 09:26 | 47.54968 | 8.44401 | 3236 ft | 164 kts | 135° |
| 2026-05-04 09:27 | 47.54171 | 8.45489 | 3057 ft | 149 kts | 135° |
| 2026-05-04 09:27 | 47.53425 | 8.46508 | 2877 ft | 145 kts | 135° |
| 2026-05-04 09:27 | 47.52685 | 8.47517 | 2668 ft | 143 kts | 135° |
| 2026-05-04 09:27 | 47.51954 | 8.48513 | 2458 ft | 143 kts | 135° |
| 2026-05-04 09:28 | 47.51221 | 8.49496 | 2252 ft | 142 kts | 135° |
| 2026-05-04 09:28 | 47.50503 | 8.50465 | 2044 ft | 142 kts | 136° |
| 2026-05-04 09:28 | 47.49777 | 8.51458 | 1854 ft | 140 kts | 135° |
| 2026-05-04 09:28 | 47.49062 | 8.52443 | 1658 ft | 140 kts | 135° |
| 2026-05-04 09:29 | 47.48351 | 8.53421 | 1477 ft | 139 kts | 136° |
| 2026-05-04 09:29 | 47.47664 | 8.54356 | 1391 ft | 123 kts | 137° |
| 2026-05-04 09:29 | 47.47142 | 8.55066 | 1391 ft | 80 kts | 137° |
| 2026-05-04 09:29 | 47.46845 | 8.55470 | 1391 ft | 35 kts | 137° |
| 2026-05-04 09:30 | 47.46658 | 8.55649 | 1394 ft | 30 kts | 159° |
| 2026-05-04 09:30 | 47.46511 | 8.55707 | 1395 ft | 14 kts | 167° |
| 2026-05-04 09:30 | 47.46418 | 8.55738 | 1395 ft | 13 kts | 164° |
| 2026-05-04 09:30 | 47.46346 | 8.55807 | 1397 ft | 11 kts | 138° |
| 2026-05-04 09:31 | 47.46291 | 8.55881 | 1399 ft | 9 kts | 138° |
| 2026-05-04 09:31 | 47.46246 | 8.55895 | 1400 ft | 6 kts | 214° |
| 2026-05-04 09:31 | 47.46233 | 8.55826 | 1399 ft | 8 kts | 272° |
| 2026-05-04 09:31 | 47.46238 | 8.55734 | 1397 ft | 5 kts | 270° |
| 2026-05-04 09:32 | 47.46218 | 8.55693 | 1397 ft | 5 kts | 189° |
| 2026-05-04 09:32 | 47.46179 | 8.55686 | 1397 ft | 5 kts | 186° |
| 2026-05-04 09:34 | 47.46169 | 8.55684 | 1398 ft | 0 kts | 185° |